createdAt,value
2023-04-08T00:00:00.672Z,23.77
2023-04-08T00:02:47.426Z,24.00
2023-04-08T00:05:34.275Z,23.58
2023-04-08T00:08:21.602Z,22.95
2023-04-08T00:11:07.344Z,22.23
2023-04-08T00:13:53.008Z,22.15
2023-04-08T00:16:38.742Z,21.52
2023-04-08T00:19:28.293Z,22.77
2023-04-08T00:22:14.049Z,22.33
2023-04-08T00:25:01.947Z,23.63
2023-04-08T00:27:47.680Z,22.13
2023-04-08T00:30:33.458Z,22.67
2023-04-08T00:33:18.987Z,24.63
2023-04-08T00:36:04.687Z,23.58
2023-04-08T00:38:50.796Z,27.15
2023-04-08T00:41:38.172Z,25.20
2023-04-08T00:44:24.135Z,23.85
2023-04-08T00:47:13.057Z,30.48
2023-04-08T00:49:59.330Z,26.20
2023-04-08T00:52:44.964Z,26.05
2023-04-08T00:55:30.611Z,25.55
2023-04-08T00:58:18.752Z,24.10
2023-04-08T01:01:13.231Z,27.10
2023-04-08T01:04:07.697Z,23.00
2023-04-08T01:06:59.035Z,24.65
2023-04-08T01:09:48.587Z,19.08
2023-04-08T01:12:41.814Z,19.38
2023-04-08T01:15:33.916Z,20.63
2023-04-08T01:18:21.627Z,18.92
2023-04-08T01:21:08.287Z,19.00
2023-04-08T01:24:02.193Z,20.48
2023-04-08T01:26:50.507Z,25.90
2023-04-08T01:29:37.403Z,26.60
2023-04-08T01:32:25.961Z,23.10
2023-04-08T01:35:14.925Z,17.83
2023-04-08T01:38:02.760Z,19.38
2023-04-08T01:40:49.938Z,22.13
2023-04-08T01:43:39.398Z,17.83
2023-04-08T01:46:26.642Z,18.42
2023-04-08T01:49:12.977Z,14.75
2023-04-08T01:52:00.631Z,18.33
2023-04-08T01:54:46.806Z,20.13
2023-04-08T01:57:36.535Z,20.13
2023-04-08T02:00:27.655Z,19.30
2023-04-08T02:03:15.291Z,17.98
2023-04-08T02:06:01.305Z,19.33
2023-04-08T02:08:47.316Z,18.27
2023-04-08T02:11:33.389Z,16.48
2023-04-08T02:14:18.877Z,18.13
2023-04-08T02:17:11.512Z,17.33
2023-04-08T02:20:03.461Z,17.13
2023-04-08T02:22:57.803Z,17.15
2023-04-08T02:25:46.029Z,16.48
2023-04-08T02:28:33.800Z,15.25
2023-04-08T02:31:20.959Z,16.58
2023-04-08T02:34:09.774Z,15.63
2023-04-08T02:36:56.060Z,13.82
2023-04-08T02:39:44.780Z,14.77
2023-04-08T02:42:30.986Z,15.40
2023-04-08T02:45:16.696Z,14.63
2023-04-08T02:48:02.780Z,14.23
2023-04-08T02:50:50.427Z,14.40
2023-04-08T02:53:36.553Z,15.45
2023-04-08T02:56:22.801Z,14.32
2023-04-08T02:59:08.904Z,14.43
2023-04-08T03:01:54.743Z,13.43
2023-04-08T03:04:40.544Z,12.75
2023-04-08T03:07:28.445Z,12.35
2023-04-08T03:10:14.358Z,11.60
2023-04-08T03:12:59.933Z,12.82
2023-04-08T03:15:45.540Z,10.98
2023-04-08T03:18:31.212Z,11.55
2023-04-08T03:21:17.090Z,9.63
2023-04-08T03:24:04.587Z,11.35
2023-04-08T03:26:50.582Z,11.57
2023-04-08T03:29:36.252Z,11.13
2023-04-08T03:32:22.363Z,10.95
2023-04-08T03:35:08.946Z,12.10
2023-04-08T03:37:55.164Z,11.90
2023-04-08T03:40:42.482Z,13.23
2023-04-08T03:43:28.566Z,13.75
2023-04-08T03:46:14.460Z,13.90
2023-04-08T03:48:59.916Z,12.63
2023-04-08T03:51:45.861Z,10.75
2023-04-08T03:54:31.706Z,12.82
2023-04-08T03:57:18.737Z,13.32
2023-04-08T04:00:04.917Z,13.70
2023-04-08T04:02:57.995Z,10.82
2023-04-08T04:05:43.647Z,11.13
2023-04-08T04:08:29.403Z,12.10
2023-04-08T04:11:15.028Z,13.27
2023-04-08T04:14:02.409Z,12.13
2023-04-08T04:16:48.049Z,12.80
2023-04-08T04:19:33.779Z,12.60
2023-04-08T04:22:19.812Z,13.13
2023-04-08T04:25:06.332Z,14.73
2023-04-08T04:27:51.941Z,14.23
2023-04-08T04:30:39.453Z,15.05
2023-04-08T04:33:25.104Z,16.25
2023-04-08T04:36:11.466Z,15.07
2023-04-08T04:38:57.671Z,15.18
2023-04-08T04:41:44.431Z,14.85
2023-04-08T04:44:30.506Z,14.85
2023-04-08T04:47:17.603Z,15.15
2023-04-08T04:50:03.906Z,14.70
2023-04-08T04:52:49.775Z,15.40
2023-04-08T04:55:36.448Z,16.08
2023-04-08T04:58:23.792Z,15.13
2023-04-08T05:01:09.503Z,16.10
2023-04-08T05:03:56.896Z,14.90
2023-04-08T05:06:42.436Z,14.40
2023-04-08T05:09:29.251Z,14.65
2023-04-08T05:12:15.384Z,15.13
2023-04-08T05:15:01.113Z,15.32
2023-04-08T05:17:46.910Z,14.50
2023-04-08T05:20:34.224Z,16.23
2023-04-08T05:23:19.591Z,13.13
2023-04-08T05:26:07.732Z,14.98
2023-04-08T05:28:53.403Z,14.52
2023-04-08T05:31:38.973Z,14.23
2023-04-08T05:34:24.835Z,13.00
2023-04-08T05:37:12.119Z,14.63
2023-04-08T05:39:58.907Z,15.45
2023-04-08T05:42:45.305Z,19.77
2023-04-08T05:45:31.090Z,18.80
2023-04-08T05:48:19.613Z,10.98
2023-04-08T05:51:05.247Z,11.43
2023-04-08T05:53:52.420Z,11.95
2023-04-08T05:56:38.181Z,12.45
2023-04-08T05:59:24.044Z,11.90
2023-04-08T06:02:09.779Z,13.10
2023-04-08T06:04:56.295Z,10.95
2023-04-08T06:07:42.097Z,10.52
2023-04-08T06:10:29.718Z,11.45
2023-04-08T06:13:16.099Z,11.23
2023-04-08T06:16:11.227Z,11.07
2023-04-08T06:18:56.790Z,10.55
2023-04-08T06:21:42.616Z,10.63
2023-04-08T06:24:29.532Z,10.23
2023-04-08T06:27:17.086Z,15.13
2023-04-08T06:30:03.084Z,10.25
2023-04-08T06:32:49.005Z,15.85
2023-04-08T06:35:34.632Z,11.65
2023-04-08T06:38:20.046Z,11.15
2023-04-08T06:41:06.860Z,9.98
2023-04-08T06:43:54.017Z,11.23
2023-04-08T06:46:39.507Z,11.68
2023-04-08T06:49:27.077Z,10.02
2023-04-08T06:52:14.770Z,10.05
2023-04-08T06:55:01.224Z,10.30
2023-04-08T06:57:47.147Z,9.95
2023-04-08T07:00:34.469Z,9.10
2023-04-08T07:03:20.182Z,9.65
2023-04-08T07:06:06.526Z,10.07
2023-04-08T07:08:52.429Z,9.70
2023-04-08T07:11:38.399Z,9.30
2023-04-08T07:14:24.342Z,9.45
2023-04-08T07:17:11.596Z,8.27
2023-04-08T07:19:57.747Z,7.95
2023-04-08T07:22:43.313Z,7.50
2023-04-08T07:25:28.888Z,7.28
2023-04-08T07:28:15.102Z,6.63
2023-04-08T07:31:10.529Z,7.63
2023-04-08T07:33:57.603Z,7.50
2023-04-08T07:36:43.210Z,8.50
2023-04-08T07:39:29.054Z,7.93
2023-04-08T07:42:14.955Z,7.40
2023-04-08T07:45:00.644Z,7.43
2023-04-08T07:47:47.337Z,7.38
2023-04-08T07:50:36.680Z,7.25
2023-04-08T07:53:42.346Z,8.10
2023-04-08T07:56:28.482Z,7.95
2023-04-08T07:59:14.204Z,7.70
2023-04-08T08:01:59.856Z,8.13
2023-04-08T08:04:46.329Z,7.75
2023-04-08T08:07:33.759Z,8.73
2023-04-08T08:10:19.321Z,9.77
2023-04-08T08:13:06.257Z,9.55
2023-04-08T08:15:53.701Z,8.77
2023-04-08T08:18:40.545Z,9.90
2023-04-08T08:21:27.144Z,9.48
2023-04-08T08:24:14.595Z,9.38
2023-04-08T08:27:01.233Z,8.60
2023-04-08T08:29:46.902Z,9.45
2023-04-08T08:32:33.243Z,9.32
2023-04-08T08:35:19.423Z,8.15
2023-04-08T08:38:05.238Z,8.95
2023-04-08T08:40:57.924Z,8.82
2023-04-08T08:43:45.127Z,8.25
2023-04-08T08:46:30.857Z,8.77
2023-04-08T08:49:16.559Z,8.88
2023-04-08T08:52:02.217Z,8.63
2023-04-08T08:54:47.752Z,8.88
2023-04-08T08:57:34.885Z,9.82
2023-04-08T09:00:33.300Z,8.73
2023-04-08T09:03:22.478Z,8.13
2023-04-08T09:06:09.518Z,9.25
2023-04-08T09:08:56.306Z,8.82
2023-04-08T09:11:43.670Z,8.65
2023-04-08T09:14:33.195Z,8.68
2023-04-08T09:17:33.691Z,8.80
2023-04-08T09:20:19.375Z,8.65
2023-04-08T09:23:05.040Z,8.38
2023-04-08T09:25:50.996Z,8.57
2023-04-08T09:28:36.996Z,8.80
2023-04-08T09:31:25.671Z,8.27
2023-04-08T09:34:13.437Z,7.97
2023-04-08T09:36:58.907Z,8.07
2023-04-08T09:39:44.574Z,8.25
2023-04-08T09:42:31.236Z,9.00
2023-04-08T09:45:18.608Z,9.68
2023-04-08T09:48:13.830Z,8.60
2023-04-08T09:51:00.853Z,7.90
2023-04-08T09:53:49.107Z,8.35
2023-04-08T09:56:42.273Z,7.72
2023-04-08T09:59:33.973Z,8.45
2023-04-08T10:02:25.718Z,8.60
2023-04-08T10:05:15.009Z,8.77
2023-04-08T10:08:01.017Z,7.97
2023-04-08T10:10:48.049Z,9.15
2023-04-08T10:13:34.348Z,8.20
2023-04-08T10:16:25.949Z,8.52
2023-04-08T10:19:42.933Z,8.50
2023-04-08T10:22:49.521Z,8.52
2023-04-08T10:25:36.289Z,9.07
2023-04-08T10:28:26.080Z,8.52
2023-04-08T10:31:23.059Z,8.18
2023-04-08T10:34:17.169Z,8.02
2023-04-08T10:37:02.789Z,9.60
2023-04-08T10:39:54.944Z,7.45
2023-04-08T10:42:40.639Z,8.35
2023-04-08T10:45:26.714Z,8.85
2023-04-08T10:48:20.791Z,7.93
2023-04-08T10:51:06.957Z,7.38
2023-04-08T10:53:53.245Z,8.38
2023-04-08T10:56:47.755Z,8.13
2023-04-08T10:59:33.483Z,8.93
2023-04-08T11:02:19.095Z,7.28
2023-04-08T11:05:05.613Z,7.65
2023-04-08T11:07:52.580Z,6.70
2023-04-08T11:10:39.835Z,7.35
2023-04-08T11:13:27.886Z,7.43
2023-04-08T11:16:18.056Z,7.68
2023-04-08T11:19:05.716Z,7.85
2023-04-08T11:21:51.660Z,7.43
2023-04-08T11:24:37.824Z,7.78
2023-04-08T11:27:25.933Z,7.53
2023-04-08T11:30:13.781Z,7.45
2023-04-08T11:32:59.944Z,7.55
2023-04-08T11:35:46.179Z,7.43
2023-04-08T11:38:32.051Z,6.80
2023-04-08T11:41:18.066Z,6.95
2023-04-08T11:44:04.299Z,8.20
2023-04-08T11:46:55.612Z,6.97
2023-04-08T11:49:45.205Z,7.00
2023-04-08T11:52:45.285Z,8.30
2023-04-08T11:55:32.083Z,7.57
2023-04-08T11:58:18.249Z,7.50
2023-04-08T12:01:04.102Z,7.22
2023-04-08T12:04:11.252Z,7.45
2023-04-08T12:06:58.516Z,9.10
2023-04-08T12:09:44.538Z,7.32
2023-04-08T12:12:30.519Z,7.95
2023-04-08T12:15:16.679Z,6.90
2023-04-08T12:18:02.547Z,7.65
2023-04-08T12:20:50.003Z,7.57
2023-04-08T12:23:35.512Z,7.70
2023-04-08T12:26:21.781Z,8.10
2023-04-08T12:29:09.498Z,7.63
2023-04-08T12:31:56.172Z,7.72
2023-04-08T12:34:42.184Z,7.38
2023-04-08T12:37:29.068Z,7.40
2023-04-08T12:40:15.478Z,7.32
2023-04-08T12:43:01.268Z,8.05
2023-04-08T12:45:47.083Z,8.73
2023-04-08T12:48:33.357Z,7.53
2023-04-08T12:51:19.253Z,7.72
2023-04-08T12:54:07.155Z,7.95
2023-04-08T12:56:53.288Z,7.10
2023-04-08T12:59:40.206Z,6.45
2023-04-08T13:02:27.452Z,6.80
2023-04-08T13:05:13.419Z,6.70
2023-04-08T13:07:59.442Z,6.18
2023-04-08T13:10:47.114Z,6.25
2023-04-08T13:13:33.104Z,5.68
2023-04-08T13:16:19.402Z,6.28
2023-04-08T13:19:05.008Z,6.13
2023-04-08T13:21:50.767Z,6.57
2023-04-08T13:24:36.563Z,6.10
2023-04-08T13:27:23.544Z,6.35
2023-04-08T13:30:10.600Z,6.15
2023-04-08T13:32:56.609Z,6.40
2023-04-08T13:35:42.741Z,6.50
2023-04-08T13:38:28.691Z,5.70
2023-04-08T13:41:14.555Z,6.20
2023-04-08T13:44:01.435Z,5.78
2023-04-08T13:46:47.150Z,6.00
2023-04-08T13:49:32.955Z,5.72
2023-04-08T13:52:19.183Z,6.00
2023-04-08T13:55:06.274Z,6.60
2023-04-08T13:57:51.995Z,6.15
2023-04-08T14:00:39.272Z,6.25
2023-04-08T14:03:24.838Z,5.82
2023-04-08T14:06:10.573Z,5.65
2023-04-08T14:08:56.373Z,5.88
2023-04-08T14:11:41.995Z,6.07
2023-04-08T14:14:28.053Z,5.95
2023-04-08T14:17:15.004Z,6.85
2023-04-08T14:20:01.117Z,5.95
2023-04-08T14:22:46.913Z,5.30
2023-04-08T14:25:32.878Z,6.45
2023-04-08T14:28:18.697Z,5.72
2023-04-08T14:31:04.846Z,6.38
2023-04-08T14:33:51.731Z,6.70
2023-04-08T14:36:37.569Z,7.40
2023-04-08T14:39:23.334Z,5.82
2023-04-08T14:42:09.439Z,6.53
2023-04-08T14:44:55.255Z,5.72
2023-04-08T14:47:40.749Z,5.97
2023-04-08T14:50:27.961Z,6.47
2023-04-08T14:53:13.780Z,5.20
2023-04-08T14:55:59.678Z,5.88
2023-04-08T14:58:45.484Z,6.47
2023-04-08T15:01:33.605Z,5.55
2023-04-08T15:04:19.191Z,5.55
2023-04-08T15:07:07.502Z,5.40
2023-04-08T15:09:54.383Z,5.32
2023-04-08T15:12:39.997Z,5.30
2023-04-08T15:15:26.046Z,5.35
2023-04-08T15:18:12.144Z,6.15
2023-04-08T15:20:58.216Z,6.03
2023-04-08T15:23:45.840Z,6.68
2023-04-08T15:26:32.676Z,5.93
2023-04-08T15:29:18.774Z,6.63
2023-04-08T15:32:04.751Z,6.07
2023-04-08T15:34:51.311Z,6.60
2023-04-08T15:37:37.263Z,5.53
2023-04-08T15:40:24.211Z,5.95
2023-04-08T15:43:12.856Z,7.07
2023-04-08T15:45:58.932Z,5.95
2023-04-08T15:48:45.264Z,6.22
2023-04-08T15:51:32.284Z,6.00
2023-04-08T15:54:18.098Z,7.68
2023-04-08T15:57:05.107Z,6.20
2023-04-08T15:59:50.863Z,6.00
2023-04-08T16:02:36.594Z,6.55
2023-04-08T16:05:22.757Z,6.13
2023-04-08T16:08:08.920Z,6.30
2023-04-08T16:11:01.391Z,6.25
2023-04-08T16:13:48.948Z,7.32
2023-04-08T16:16:35.370Z,6.75
2023-04-08T16:19:22.190Z,7.53
2023-04-08T16:22:08.112Z,8.95
2023-04-08T16:24:54.431Z,8.95
2023-04-08T16:27:40.425Z,8.77
2023-04-08T16:30:27.386Z,9.55
2023-04-08T16:33:13.309Z,9.75
2023-04-08T16:35:59.468Z,10.43
2023-04-08T16:38:45.438Z,12.07
2023-04-08T16:41:31.896Z,12.48
2023-04-08T16:44:17.383Z,11.30
2023-04-08T16:47:04.669Z,11.07
2023-04-08T16:49:52.166Z,13.88
2023-04-08T16:52:38.215Z,11.35
2023-04-08T16:55:26.783Z,11.35
2023-04-08T16:58:12.626Z,11.35
2023-04-08T17:00:58.343Z,12.27
2023-04-08T17:03:47.679Z,14.90
2023-04-08T17:06:37.656Z,17.42
2023-04-08T17:09:23.928Z,20.67
2023-04-08T17:12:09.836Z,14.75
2023-04-08T17:14:55.762Z,15.75
2023-04-08T17:17:41.783Z,14.82
2023-04-08T17:20:29.061Z,15.25
2023-04-08T17:23:14.903Z,15.75
2023-04-08T17:26:04.968Z,14.82
2023-04-08T17:28:50.546Z,19.88
2023-04-08T17:31:36.933Z,18.35
2023-04-08T17:34:22.927Z,17.10
2023-04-08T17:37:10.286Z,16.85
2023-04-08T17:39:56.243Z,17.60
2023-04-08T17:42:42.523Z,16.13
2023-04-08T17:45:31.197Z,13.10
2023-04-08T17:48:17.203Z,25.15
2023-04-08T17:51:04.980Z,21.92
2023-04-08T17:53:52.493Z,21.27
2023-04-08T17:56:38.817Z,20.80
2023-04-08T17:59:28.081Z,39.05
2023-04-08T18:02:14.153Z,29.83
2023-04-08T18:05:01.193Z,21.35
2023-04-08T18:07:46.865Z,20.30
2023-04-08T18:10:33.943Z,18.45
2023-04-08T18:13:19.924Z,15.93
2023-04-08T18:16:06.819Z,17.20
2023-04-08T18:18:52.298Z,14.20
2023-04-08T18:21:38.818Z,16.00
2023-04-08T18:24:24.803Z,14.45
2023-04-08T18:27:12.554Z,15.20
2023-04-08T18:29:58.270Z,20.65
2023-04-08T18:32:43.839Z,20.45
2023-04-08T18:35:29.775Z,17.80
2023-04-08T18:38:16.154Z,15.15
2023-04-08T18:41:02.539Z,15.10
2023-04-08T18:43:49.822Z,14.80
2023-04-08T18:46:36.097Z,14.43
2023-04-08T18:49:21.998Z,17.38
2023-04-08T18:52:08.519Z,15.48
2023-04-08T18:54:54.720Z,14.25
2023-04-08T18:57:40.550Z,14.57
2023-04-08T19:00:27.827Z,25.08
2023-04-08T19:03:13.818Z,25.92
2023-04-08T19:06:05.128Z,20.65
2023-04-08T19:08:51.048Z,35.67
2023-04-08T19:11:36.865Z,30.52
2023-04-08T19:14:22.680Z,29.83
2023-04-08T19:17:09.775Z,25.90
2023-04-08T19:19:55.530Z,21.88
2023-04-08T19:22:41.461Z,28.35
2023-04-08T19:25:27.200Z,25.17
2023-04-08T19:28:14.374Z,19.13
2023-04-08T19:31:00.268Z,16.42
2023-04-08T19:33:47.349Z,19.08
2023-04-08T19:36:33.298Z,17.73
2023-04-08T19:39:25.242Z,19.02
2023-04-08T19:42:13.451Z,20.15
2023-04-08T19:45:01.209Z,19.13
2023-04-08T19:47:46.993Z,19.83
2023-04-08T19:50:39.826Z,19.52
2023-04-08T19:53:25.944Z,20.85
2023-04-08T19:56:11.797Z,20.75
2023-04-08T19:58:57.803Z,21.60
2023-04-08T20:01:43.296Z,21.85
2023-04-08T20:04:29.175Z,22.88
2023-04-08T20:07:26.134Z,23.35
2023-04-08T20:10:14.775Z,24.02
2023-04-08T20:13:00.336Z,24.55
2023-04-08T20:15:45.960Z,24.52
2023-04-08T20:18:32.779Z,24.95
2023-04-08T20:21:18.827Z,25.63
2023-04-08T20:24:07.282Z,23.23
2023-04-08T20:26:52.771Z,24.27
2023-04-08T20:29:38.402Z,22.65
2023-04-08T20:32:24.104Z,23.23
2023-04-08T20:35:10.889Z,23.65
2023-04-08T20:37:56.698Z,25.85
2023-04-08T20:40:59.552Z,25.02
2023-04-08T20:43:45.240Z,25.33
2023-04-08T20:46:30.881Z,26.70
2023-04-08T20:49:16.490Z,25.80
2023-04-08T20:52:02.691Z,27.60
2023-04-08T20:54:48.073Z,26.55
2023-04-08T20:57:35.521Z,26.60
2023-04-08T21:00:21.438Z,27.08
2023-04-08T21:03:07.328Z,24.52
2023-04-08T21:05:55.272Z,24.45
2023-04-08T21:08:41.312Z,23.92
2023-04-08T21:11:28.529Z,23.05
2023-04-08T21:14:15.805Z,24.45
2023-04-08T21:17:01.858Z,22.95
2023-04-08T21:19:47.912Z,23.95
2023-04-08T21:22:33.505Z,20.33
2023-04-08T21:25:19.269Z,23.98
2023-04-08T21:28:05.131Z,22.27
2023-04-08T21:30:52.139Z,23.10
2023-04-08T21:33:37.985Z,21.92
2023-04-08T21:36:23.930Z,23.13
2023-04-08T21:39:09.821Z,21.15
2023-04-08T21:41:55.339Z,19.35
2023-04-08T21:44:41.113Z,20.60
2023-04-08T21:47:28.424Z,20.23
2023-04-08T21:50:14.285Z,18.80
2023-04-08T21:53:00.903Z,19.88
2023-04-08T21:55:47.059Z,19.42
2023-04-08T21:58:32.652Z,19.58
2023-04-08T22:01:18.397Z,19.70
2023-04-08T22:04:05.669Z,19.25
2023-04-08T22:06:51.587Z,18.45
2023-04-08T22:09:37.399Z,19.08
2023-04-08T22:12:22.756Z,19.08
2023-04-08T22:15:09.915Z,19.25
2023-04-08T22:17:55.979Z,18.15
2023-04-08T22:20:43.172Z,17.75
2023-04-08T22:23:28.678Z,19.02
2023-04-08T22:26:15.705Z,19.48
2023-04-08T22:29:01.828Z,19.17
2023-04-08T22:31:47.348Z,20.35
2023-04-08T22:34:32.668Z,19.17
2023-04-08T22:37:19.919Z,19.38
2023-04-08T22:40:06.712Z,18.77
2023-04-08T22:42:52.405Z,18.58
2023-04-08T22:45:38.184Z,19.27
2023-04-08T22:48:23.692Z,19.73
2023-04-08T22:51:10.104Z,19.50
2023-04-08T22:53:57.099Z,19.13
2023-04-08T22:56:42.778Z,19.98
2023-04-08T22:59:28.526Z,21.05
2023-04-08T23:02:14.473Z,19.50
2023-04-08T23:05:00.349Z,20.35
2023-04-08T23:07:46.622Z,20.33
2023-04-08T23:10:34.260Z,19.88
2023-04-08T23:13:20.886Z,20.55
2023-04-08T23:16:06.929Z,19.92
2023-04-08T23:18:52.802Z,20.27
2023-04-08T23:21:38.463Z,21.13
2023-04-08T23:24:24.046Z,21.17
2023-04-08T23:27:11.370Z,20.92
2023-04-08T23:29:57.008Z,21.25
2023-04-08T23:32:42.741Z,22.23
2023-04-08T23:35:28.382Z,21.98
2023-04-08T23:38:14.366Z,20.65
2023-04-08T23:40:59.828Z,20.38
2023-04-08T23:43:47.456Z,20.38
2023-04-08T23:46:33.187Z,20.73
2023-04-08T23:49:18.785Z,20.75
2023-04-08T23:52:04.984Z,20.60
2023-04-08T23:54:50.525Z,19.92
2023-04-08T23:57:36.276Z,21.83
